Portada
METAR-TAF:

METAR-TAF

Aeroports :

Wekweeti, Territoris del Nord-oest, Canadà

latitud: 64-11-27N, longitud: 114-04-36W, altitud: 368 m

Observació

L'informe es va fer fa 50 minuts, a les 01:00 UTC
Vent 16 kt del Nord/Nord-Est amb ràfegues de 24 kt
Temperatura 7°C
Humitat 49%
Pressió 1012 hPa
Visibilitat: 14.5 km
Cel cobert a una alçada de 4600 ft

METAR: CYWE 170100Z AUTO 03016G24KT 9SM OVC046 07/M03 A2989 RMK SLP144

Hora: 19:50 (01:50 UTC)

Pronòstic

L'informe es va fer fa 7 hores i 10 minuts, a les 18:40 UTC
Pronòstic vàlid del 16 a les 19 UTC al 17 a les 01 UTC
Vent 15 kt del Nord/Nord-Est amb ràfegues de 25 kt
Visibilitat: 10 km
Cel ennuvolat a una alçada de 4000 ft
Evolucionant progressivament
l' 16 a les 21 UTC al 16 a les 23 UTC
Núvols disperses a una alçada de 4000 ft

TAF: CYWE 161840Z 1619/1701 02015G25KT P6SM BKN040 BECMG 1621/1623 SCT040 RMK FCST BASED ON AUTO OBS. NXT FCST BY 171300Z

Observacions i pronòstics meteorològics de més de 4000 aeroports (METAR i TAF).

Les estacions disponibles són els punts grocs i vermells al mapa.

Posi el ratolí al punt desitjat per veure el nom de l'estació.

Feu clic per veure les observacions i els pronòstics meteorològics.

Per canviar el mapa: feu clic els botons verds amb una creu de color negre per apropar; al botó verd amb un guió per allunyar la imatge; o en les fletxes verdes per a mapes adjacents.


METAR-TAF: